createdAt,value
2023-02-26T00:01:17.801Z,4.3
2023-02-26T00:05:52.211Z,4.3
2023-02-26T00:06:28.691Z,4.3
2023-02-26T00:29:03.169Z,6
2023-02-26T00:39:03.909Z,4.4
2023-02-26T00:49:04.679Z,2.8
2023-02-26T00:59:05.356Z,3.7
2023-02-26T01:09:06.064Z,3.3
2023-02-26T01:19:06.637Z,4.5
2023-02-26T01:29:07.403Z,4.2
2023-02-26T01:39:08.086Z,5.9
2023-02-26T01:49:08.775Z,8.9
2023-02-26T01:59:09.520Z,5.4
2023-02-26T02:09:10.266Z,4.6
2023-02-26T02:19:10.960Z,4.5
2023-02-26T02:29:11.665Z,3.7
2023-02-26T02:39:12.551Z,3.8
2023-02-26T02:49:13.266Z,5.6
2023-02-26T02:59:13.867Z,2.3
2023-02-26T03:09:14.648Z,3.9
2023-02-26T03:19:15.333Z,5
2023-02-26T03:29:15.937Z,4.2
2023-02-26T03:39:16.611Z,3.2
2023-02-26T03:49:17.526Z,2.3
2023-02-26T03:59:19.282Z,3.2
2023-02-26T04:09:18.722Z,2.4
2023-02-26T04:19:19.464Z,3.9
2023-02-26T04:29:20.249Z,4.5
2023-02-26T04:39:20.917Z,1.9
2023-02-26T04:49:21.671Z,1.6
2023-02-26T04:59:22.405Z,3.9
2023-02-26T05:09:22.997Z,1.9
2023-02-26T05:19:23.728Z,2
2023-02-26T05:29:24.374Z,2.2
2023-02-26T05:39:25.177Z,2.5
2023-02-26T05:49:25.954Z,2.3
2023-02-26T05:59:26.719Z,4.2
2023-02-26T06:09:27.408Z,4.1
2023-02-26T06:19:28.190Z,3.1
2023-02-26T06:29:28.880Z,2.4
2023-02-26T06:39:29.612Z,4.3
2023-02-26T06:49:30.399Z,3.2
2023-02-26T06:59:31.213Z,4.2
2023-02-26T07:09:31.934Z,2.9
2023-02-26T07:19:32.582Z,3.1
2023-02-26T07:29:33.382Z,2.1
2023-02-26T07:39:34.081Z,1.8
2023-02-26T07:49:34.817Z,3.5
2023-02-26T07:59:35.508Z,2.2
2023-02-26T08:09:36.210Z,4.1
2023-02-26T08:19:36.902Z,2.6
2023-02-26T08:29:37.580Z,3.3
2023-02-26T08:39:38.460Z,3.8
2023-02-26T08:49:39.119Z,3.9
2023-02-26T08:59:40.074Z,2.3
2023-02-26T09:09:40.421Z,2.1
2023-02-26T09:19:41.183Z,2
2023-02-26T09:29:43.144Z,1.7
2023-02-26T09:39:43.726Z,2.3
2023-02-26T09:49:43.455Z,2.5
2023-02-26T09:59:45.258Z,1.6
2023-02-26T10:09:44.672Z,1.6
2023-02-26T10:19:45.459Z,1.8
2023-02-26T10:29:46.127Z,1.9
2023-02-26T10:39:46.819Z,1.9
2023-02-26T10:49:47.362Z,2.1
2023-02-26T10:59:48.003Z,2.3
2023-02-26T11:09:48.726Z,2.9
2023-02-26T11:19:50.574Z,2
2023-02-26T11:29:49.987Z,1.6
2023-02-26T11:38:26.150Z,1.6
2023-02-26T11:39:51.982Z,2
2023-02-26T11:50:01.681Z,2
2023-02-26T11:59:53.517Z,2.3
2023-02-26T12:03:25.778Z,2.3
2023-02-26T12:09:52.710Z,1.7
2023-02-26T12:19:53.488Z,2.4
2023-02-26T12:29:54.101Z,1.9
2023-02-26T12:39:56.962Z,2.5
2023-02-26T12:49:55.634Z,2.3
2023-02-26T13:00:09.688Z,2.2
2023-02-26T13:09:56.909Z,2.7
2023-02-26T13:19:58.921Z,2.2
2023-02-26T13:29:58.546Z,3
2023-02-26T13:39:59.093Z,2.9
2023-02-26T13:49:59.833Z,1.8
2023-02-26T14:00:00.573Z,2.2
2023-02-26T14:10:01.461Z,3.2
2023-02-26T14:20:02.201Z,1.9
2023-02-26T14:30:02.978Z,2.6
2023-02-26T14:40:03.783Z,3.8
2023-02-26T14:50:04.617Z,2.6
2023-02-26T15:00:05.430Z,3
2023-02-26T15:10:06.323Z,3.5
2023-02-26T15:20:07.080Z,3.1
2023-02-26T15:30:08.054Z,2.4
2023-02-26T15:40:08.866Z,3.5
2023-02-26T15:50:09.631Z,3.4
2023-02-26T16:00:10.622Z,2.2
2023-02-26T16:10:12.680Z,2.1
2023-02-26T16:20:12.496Z,2.1
2023-02-26T16:30:13.373Z,1.7
2023-02-26T16:40:15.870Z,1.9
2023-02-26T16:50:15.397Z,3.3
2023-02-26T17:00:16.467Z,2.4
2023-02-26T17:10:17.782Z,2
2023-02-26T17:20:18.711Z,1.3
2023-02-26T17:30:21.166Z,1.7
2023-02-26T17:40:20.992Z,2.3
2023-02-26T17:50:23.283Z,1.9
2023-02-26T18:00:23.295Z,2.5
2023-02-26T18:10:25.071Z,3.5
2023-02-26T18:20:25.709Z,3.9
2023-02-26T18:30:26.930Z,3.4
2023-02-26T18:40:28.108Z,4.8
2023-02-26T18:50:29.385Z,3.2
2023-02-26T19:00:30.456Z,4.8
2023-02-26T19:10:31.677Z,2.4
2023-02-26T19:20:32.809Z,2.4
2023-02-26T19:30:33.953Z,2.5
2023-02-26T19:40:35.146Z,4.2
2023-02-26T19:50:36.369Z,3.7
2023-02-26T20:00:37.627Z,3.2
2023-02-26T20:10:38.819Z,4.1
2023-02-26T20:20:53.393Z,3.1
2023-02-26T20:30:40.990Z,4.7
2023-02-26T20:40:42.168Z,3.1
2023-02-26T20:50:43.374Z,3.1
2023-02-26T21:00:44.473Z,3.2
2023-02-26T21:10:45.547Z,2.5
2023-02-26T21:20:47.984Z,3.3
2023-02-26T21:30:47.921Z,3.3
2023-02-26T21:40:48.977Z,3.6
2023-02-26T21:50:50.108Z,3.4
2023-02-26T21:58:23.303Z,3.4
2023-02-26T22:00:51.117Z,3.1
2023-02-26T22:10:52.138Z,4
2023-02-26T22:20:53.194Z,3.3
2023-02-26T22:30:54.342Z,4.5
2023-02-26T22:40:55.278Z,4.7
2023-02-26T22:50:56.210Z,5.5
2023-02-26T23:00:59.645Z,6.6
2023-02-26T23:10:59.502Z,6.2
2023-02-26T23:20:59.025Z,6.6
2023-02-26T23:31:00.003Z,5.9
2023-02-26T23:41:00.809Z,6.4
2023-02-26T23:51:01.647Z,6.9
